createdAt,value
2023-05-08T00:01:17.595Z,17.30
2023-05-08T00:03:44.257Z,18.75
2023-05-08T00:06:10.919Z,17.77
2023-05-08T00:08:37.441Z,17.38
2023-05-08T00:11:03.944Z,17.15
2023-05-08T00:13:30.592Z,18.13
2023-05-08T00:15:57.160Z,18.20
2023-05-08T00:18:23.840Z,16.70
2023-05-08T00:20:50.369Z,18.25
2023-05-08T00:23:16.800Z,18.60
2023-05-08T00:25:43.668Z,17.90
2023-05-08T00:28:10.175Z,18.50
2023-05-08T00:30:36.837Z,17.40
2023-05-08T00:33:03.442Z,18.42
2023-05-08T00:35:29.955Z,17.75
2023-05-08T00:37:56.467Z,18.13
2023-05-08T00:40:23.012Z,17.15
2023-05-08T00:42:49.481Z,17.92
2023-05-08T00:45:15.942Z,18.50
2023-05-08T00:47:42.783Z,17.80
2023-05-08T00:50:10.697Z,17.50
2023-05-08T00:52:37.846Z,17.73
2023-05-08T00:55:05.651Z,17.95
2023-05-08T00:57:35.714Z,18.40
2023-05-08T01:00:04.326Z,18.83
2023-05-08T01:02:32.047Z,17.48
2023-05-08T01:04:58.997Z,17.60
2023-05-08T01:07:26.083Z,19.02
2023-05-08T01:09:53.382Z,18.50
2023-05-08T01:12:25.872Z,19.02
2023-05-08T01:15:10.747Z,17.20
2023-05-08T01:17:41.194Z,17.33
2023-05-08T01:20:48.879Z,17.45
2023-05-08T01:23:52.719Z,16.90
2023-05-08T01:26:55.970Z,17.45
2023-05-08T01:29:51.604Z,17.90
2023-05-08T01:32:52.283Z,18.60
2023-05-08T01:35:29.903Z,18.58
2023-05-08T01:38:12.652Z,16.52
2023-05-08T01:41:07.030Z,18.70
2023-05-08T01:43:37.124Z,18.35
2023-05-08T01:46:10.021Z,17.85
2023-05-08T01:48:44.489Z,19.13
2023-05-08T01:51:20.786Z,17.73
2023-05-08T01:54:00.832Z,18.15
2023-05-08T01:56:29.722Z,17.38
2023-05-08T01:58:59.026Z,18.65
2023-05-08T02:01:29.367Z,18.52
2023-05-08T02:03:56.585Z,17.92
2023-05-08T02:06:25.098Z,18.17
2023-05-08T02:08:53.581Z,18.00
2023-05-08T02:11:21.627Z,18.35
2023-05-08T02:13:49.896Z,18.10
2023-05-08T02:16:19.017Z,16.52
2023-05-08T02:18:51.080Z,18.77
2023-05-08T02:21:19.763Z,17.98
2023-05-08T02:23:47.183Z,17.58
2023-05-08T02:26:17.005Z,18.40
2023-05-08T02:28:44.316Z,18.38
2023-05-08T02:31:12.416Z,17.17
2023-05-08T02:33:42.001Z,18.55
2023-05-08T02:36:10.879Z,16.98
2023-05-08T02:38:39.787Z,18.80
2023-05-08T02:41:07.895Z,18.83
2023-05-08T02:43:35.172Z,19.80
2023-05-08T02:46:12.906Z,18.45
2023-05-08T02:49:02.322Z,18.42
2023-05-08T02:51:46.600Z,17.60
2023-05-08T02:54:56.175Z,18.50
2023-05-08T02:57:50.878Z,18.02
2023-05-08T03:00:26.980Z,18.30
2023-05-08T03:02:59.598Z,18.02
2023-05-08T03:05:31.718Z,18.10
2023-05-08T03:08:03.817Z,17.42
2023-05-08T03:10:34.875Z,19.10
2023-05-08T03:13:05.030Z,18.35
2023-05-08T03:15:43.292Z,18.40
2023-05-08T03:18:14.917Z,18.30
2023-05-08T03:20:46.377Z,18.02
2023-05-08T03:23:15.570Z,18.98
2023-05-08T03:25:43.734Z,19.50
2023-05-08T03:28:11.430Z,18.38
2023-05-08T03:30:40.239Z,17.77
2023-05-08T03:33:08.514Z,17.65
2023-05-08T03:35:39.179Z,17.58
2023-05-08T03:38:06.847Z,17.65
2023-05-08T03:40:38.699Z,18.48
2023-05-08T03:43:08.692Z,18.00
2023-05-08T03:45:37.327Z,18.02
2023-05-08T03:48:06.189Z,18.33
2023-05-08T03:50:35.521Z,17.77
2023-05-08T03:53:02.267Z,19.05
2023-05-08T03:55:30.527Z,17.92
2023-05-08T03:58:03.225Z,19.60
2023-05-08T04:00:37.805Z,18.05
2023-05-08T04:03:19.672Z,19.38
2023-05-08T04:06:10.893Z,18.17
2023-05-08T04:08:48.266Z,18.02
2023-05-08T04:11:42.885Z,18.27
2023-05-08T04:14:16.216Z,19.33
2023-05-08T04:16:49.894Z,18.63
2023-05-08T04:19:23.004Z,19.02
2023-05-08T04:21:50.963Z,18.40
2023-05-08T04:24:19.578Z,17.88
2023-05-08T04:26:46.273Z,17.75
2023-05-08T04:29:13.935Z,18.63
2023-05-08T04:31:41.381Z,18.15
2023-05-08T04:34:09.212Z,19.67
2023-05-08T04:36:35.737Z,18.58
2023-05-08T04:39:02.186Z,18.90
2023-05-08T04:41:28.808Z,18.40
2023-05-08T04:43:55.501Z,18.80
2023-05-08T04:46:22.017Z,18.77
2023-05-08T04:48:48.546Z,19.40
2023-05-08T04:51:14.979Z,19.10
2023-05-08T04:53:41.403Z,20.05
2023-05-08T04:56:08.389Z,19.90
2023-05-08T04:58:34.822Z,19.60
2023-05-08T05:01:05.332Z,19.05
2023-05-08T05:03:31.944Z,19.10
2023-05-08T05:05:59.506Z,19.13
2023-05-08T05:08:26.907Z,19.58
2023-05-08T05:10:53.439Z,19.33
2023-05-08T05:13:20.282Z,18.00
2023-05-08T05:15:46.922Z,18.13
2023-05-08T05:18:13.458Z,18.70
2023-05-08T05:20:40.168Z,18.58
2023-05-08T05:23:06.608Z,18.85
2023-05-08T05:25:33.118Z,18.73
2023-05-08T05:27:59.636Z,19.55
2023-05-08T05:30:26.141Z,18.70
2023-05-08T05:32:52.699Z,19.23
2023-05-08T05:35:20.445Z,20.58
2023-05-08T05:37:46.895Z,18.02
2023-05-08T05:40:13.435Z,19.15
2023-05-08T05:42:39.925Z,18.38
2023-05-08T05:45:07.095Z,19.85
2023-05-08T05:47:33.628Z,18.52
2023-05-08T05:50:00.150Z,18.50
2023-05-08T05:52:26.768Z,18.05
2023-05-08T05:54:56.165Z,17.58
2023-05-08T05:57:22.828Z,20.13
2023-05-08T05:59:49.562Z,19.58
2023-05-08T06:02:18.673Z,20.02
2023-05-08T06:04:45.486Z,18.90
2023-05-08T06:07:12.051Z,18.90
2023-05-08T06:09:38.591Z,19.17
2023-05-08T06:12:05.233Z,21.15
2023-05-08T06:14:31.785Z,19.33
2023-05-08T06:16:58.325Z,20.45
2023-05-08T06:19:24.879Z,20.08
2023-05-08T06:21:54.609Z,21.05
2023-05-08T06:24:21.026Z,20.13
2023-05-08T06:26:47.759Z,20.30
2023-05-08T06:29:14.945Z,18.90
2023-05-08T06:31:42.185Z,19.88
2023-05-08T06:34:09.192Z,20.60
2023-05-08T06:36:36.359Z,21.42
2023-05-08T06:39:06.166Z,18.98
2023-05-08T06:41:32.702Z,20.08
2023-05-08T06:43:59.388Z,20.35
2023-05-08T06:46:26.019Z,19.77
2023-05-08T06:48:52.528Z,19.67
2023-05-08T06:51:19.895Z,19.63
2023-05-08T06:53:46.395Z,19.75
2023-05-08T06:56:12.896Z,18.95
2023-05-08T06:58:39.344Z,17.80
2023-05-08T07:01:06.006Z,17.77
2023-05-08T07:03:32.803Z,18.95
2023-05-08T07:05:59.226Z,17.77
2023-05-08T07:08:25.980Z,17.15
2023-05-08T07:10:53.186Z,16.52
2023-05-08T07:13:21.941Z,17.05
2023-05-08T07:15:51.516Z,16.55
2023-05-08T07:18:18.086Z,16.00
2023-05-08T07:20:44.579Z,16.23
2023-05-08T07:23:11.066Z,15.80
2023-05-08T07:25:37.554Z,15.27
2023-05-08T07:28:04.230Z,13.77
2023-05-08T07:30:31.536Z,13.95
2023-05-08T07:32:58.047Z,13.85
2023-05-08T07:35:24.915Z,14.10
2023-05-08T07:37:51.367Z,13.57
2023-05-08T07:40:17.954Z,12.90
2023-05-08T07:42:45.522Z,12.98
2023-05-08T07:45:13.667Z,13.48
2023-05-08T07:47:49.537Z,12.55
2023-05-08T07:50:16.112Z,11.90
2023-05-08T07:52:45.649Z,11.95
2023-05-08T07:55:39.279Z,12.15
2023-05-08T07:58:06.668Z,8.05
2023-05-08T08:00:33.360Z,12.32
2023-05-08T08:02:59.966Z,7.13
2023-05-08T08:05:26.532Z,11.43
2023-05-08T08:07:53.024Z,12.15
2023-05-08T08:10:19.481Z,11.40
2023-05-08T08:12:46.072Z,12.57
2023-05-08T08:15:12.821Z,10.98
2023-05-08T08:17:39.490Z,9.80
2023-05-08T08:20:06.872Z,12.45
2023-05-08T08:22:33.408Z,11.73
2023-05-08T08:24:59.881Z,11.20
2023-05-08T08:27:26.321Z,12.60
2023-05-08T08:30:01.499Z,12.27
2023-05-08T08:32:39.022Z,10.07
2023-05-08T08:35:05.909Z,8.48
2023-05-08T08:37:32.411Z,8.80
2023-05-08T08:39:59.942Z,8.02
2023-05-08T08:42:26.400Z,6.93
2023-05-08T08:44:52.895Z,1.13
2023-05-08T08:47:22.749Z,7.03
2023-05-08T08:49:51.009Z,6.07
2023-05-08T08:52:32.000Z,6.43
2023-05-08T08:55:02.414Z,5.53
2023-05-08T08:57:33.882Z,5.78
2023-05-08T09:00:05.251Z,5.35
2023-05-08T09:02:31.967Z,4.70
2023-05-08T09:04:59.384Z,5.22
2023-05-08T09:07:26.864Z,4.72
2023-05-08T09:09:54.306Z,4.65
2023-05-08T09:12:20.984Z,4.05
2023-05-08T09:14:47.700Z,4.57
2023-05-08T09:17:14.421Z,4.38
2023-05-08T09:19:41.214Z,4.15
2023-05-08T09:22:09.294Z,3.95
2023-05-08T09:24:59.065Z,3.65
2023-05-08T09:27:27.634Z,4.53
2023-05-08T09:30:14.590Z,3.95
2023-05-08T09:32:43.291Z,3.80
2023-05-08T09:35:11.158Z,3.10
2023-05-08T09:37:39.367Z,3.03
2023-05-08T09:40:17.549Z,3.63
2023-05-08T09:42:44.578Z,3.67
2023-05-08T09:45:11.892Z,3.88
2023-05-08T09:47:39.926Z,4.00
2023-05-08T09:50:09.160Z,3.80
2023-05-08T09:52:37.277Z,4.28
2023-05-08T09:55:03.804Z,3.67
2023-05-08T09:57:53.788Z,4.75
2023-05-08T10:00:20.748Z,4.25
2023-05-08T10:03:06.241Z,4.00
2023-05-08T10:05:35.850Z,3.38
2023-05-08T10:08:26.852Z,4.40
2023-05-08T10:10:53.327Z,6.03
2023-05-08T10:13:19.849Z,4.93
2023-05-08T10:15:54.450Z,4.57
2023-05-08T10:18:24.353Z,4.10
2023-05-08T10:20:53.603Z,4.78
2023-05-08T10:23:20.443Z,4.70
2023-05-08T10:25:48.720Z,5.40
2023-05-08T10:28:25.809Z,5.03
2023-05-08T10:30:56.831Z,5.35
2023-05-08T10:33:31.069Z,5.15
2023-05-08T10:35:58.870Z,5.13
2023-05-08T10:38:25.760Z,5.55
2023-05-08T10:40:58.280Z,4.40
2023-05-08T10:43:25.700Z,4.70
2023-05-08T10:45:55.581Z,4.95
2023-05-08T10:48:47.238Z,5.22
2023-05-08T10:51:27.564Z,5.50
2023-05-08T10:53:59.456Z,5.60
2023-05-08T10:56:29.216Z,5.75
2023-05-08T10:58:57.519Z,4.22
2023-05-08T11:01:24.934Z,4.65
2023-05-08T11:03:52.551Z,4.45
2023-05-08T11:06:46.541Z,4.30
2023-05-08T11:09:26.973Z,3.88
2023-05-08T11:12:24.375Z,4.65
2023-05-08T11:14:59.972Z,2.90
2023-05-08T11:17:26.761Z,4.05
2023-05-08T11:20:01.439Z,2.85
2023-05-08T11:22:32.730Z,4.18
2023-05-08T11:25:11.906Z,4.47
2023-05-08T11:27:44.316Z,4.43
2023-05-08T11:30:37.197Z,4.25
2023-05-08T11:33:04.001Z,3.75
2023-05-08T11:35:56.594Z,2.92
2023-05-08T11:38:28.935Z,3.55
2023-05-08T11:41:00.843Z,4.07
2023-05-08T11:43:33.367Z,4.45
2023-05-08T11:46:08.343Z,3.78
2023-05-08T11:48:35.984Z,4.28
2023-05-08T11:51:03.576Z,2.88
2023-05-08T11:53:31.350Z,4.25
2023-05-08T11:55:59.236Z,4.13
2023-05-08T11:58:26.541Z,4.32
2023-05-08T12:00:54.714Z,5.18
2023-05-08T12:03:25.095Z,5.05
2023-05-08T12:05:55.540Z,5.18
2023-05-08T12:08:22.144Z,4.50
2023-05-08T12:10:54.362Z,5.63
2023-05-08T12:13:30.206Z,4.28
2023-05-08T12:15:59.752Z,3.15
2023-05-08T12:18:28.270Z,4.22
2023-05-08T12:20:58.797Z,4.75
2023-05-08T12:23:26.486Z,4.03
2023-05-08T12:25:55.308Z,3.80
2023-05-08T12:28:22.741Z,3.20
2023-05-08T12:30:50.121Z,2.88
2023-05-08T12:33:17.292Z,2.92
2023-05-08T12:35:44.181Z,3.05
2023-05-08T12:38:11.958Z,3.10
2023-05-08T12:40:43.567Z,2.67
2023-05-08T12:43:11.677Z,3.20
2023-05-08T12:45:40.372Z,2.83
2023-05-08T12:48:09.429Z,2.67
2023-05-08T12:50:44.283Z,2.65
2023-05-08T12:53:15.580Z,2.90
2023-05-08T12:55:52.788Z,2.53
2023-05-08T12:58:20.452Z,2.90
2023-05-08T13:00:52.510Z,2.38
2023-05-08T13:03:25.651Z,2.83
2023-05-08T13:05:53.292Z,2.78
2023-05-08T13:08:20.123Z,2.50
2023-05-08T13:10:51.832Z,2.65
2023-05-08T13:13:31.041Z,2.83
2023-05-08T13:15:58.337Z,2.38
2023-05-08T13:18:27.519Z,2.75
2023-05-08T13:20:56.142Z,2.30
2023-05-08T13:23:23.464Z,2.97
2023-05-08T13:25:50.679Z,2.60
2023-05-08T13:28:17.717Z,2.50
2023-05-08T13:30:44.184Z,2.90
2023-05-08T13:33:10.784Z,2.75
2023-05-08T13:35:37.314Z,2.53
2023-05-08T13:38:03.793Z,2.50
2023-05-08T13:40:30.269Z,3.10
2023-05-08T13:42:56.804Z,2.75
2023-05-08T13:45:23.376Z,2.88
2023-05-08T13:47:50.514Z,3.08
2023-05-08T13:50:19.515Z,3.25
2023-05-08T13:52:45.957Z,3.58
2023-05-08T13:55:13.800Z,3.28
2023-05-08T13:57:41.216Z,3.60
2023-05-08T14:00:09.032Z,3.17
2023-05-08T14:02:37.261Z,3.67
2023-05-08T14:05:04.544Z,3.25
2023-05-08T14:07:31.071Z,3.72
2023-05-08T14:09:57.614Z,3.90
2023-05-08T14:12:24.097Z,3.55
2023-05-08T14:14:50.598Z,3.85
2023-05-08T14:17:17.063Z,3.92
2023-05-08T14:19:43.562Z,4.45
2023-05-08T14:22:10.089Z,4.68
2023-05-08T14:24:36.590Z,4.05
2023-05-08T14:27:05.912Z,4.43
2023-05-08T14:29:35.883Z,4.57
2023-05-08T14:32:02.681Z,4.45
2023-05-08T14:34:29.246Z,4.80
2023-05-08T14:36:55.765Z,4.97
2023-05-08T14:39:22.245Z,4.35
2023-05-08T14:42:10.315Z,4.70
2023-05-08T14:44:35.259Z,4.90
2023-05-08T14:47:01.773Z,4.45
2023-05-08T14:49:37.479Z,4.95
2023-05-08T14:52:06.379Z,4.82
2023-05-08T14:54:33.181Z,4.22
2023-05-08T14:57:00.142Z,5.07
2023-05-08T14:59:26.680Z,4.78
2023-05-08T15:01:53.275Z,5.10
2023-05-08T15:04:19.856Z,5.43
2023-05-08T15:06:46.702Z,4.95
2023-05-08T15:09:13.161Z,4.60
2023-05-08T15:11:39.728Z,5.13
2023-05-08T15:14:06.302Z,5.60
2023-05-08T15:16:32.981Z,5.35
2023-05-08T15:19:00.091Z,5.30
2023-05-08T15:21:27.407Z,5.85
2023-05-08T15:23:55.130Z,5.93
2023-05-08T15:26:22.485Z,4.78
2023-05-08T15:28:49.117Z,5.60
2023-05-08T15:31:15.933Z,5.40
2023-05-08T15:33:44.979Z,5.18
2023-05-08T15:36:13.400Z,5.68
2023-05-08T15:38:43.559Z,5.45
2023-05-08T15:41:14.758Z,5.55
2023-05-08T15:43:42.272Z,5.50
2023-05-08T15:46:08.852Z,4.93
2023-05-08T15:48:35.449Z,5.47
2023-05-08T15:51:01.905Z,5.70
2023-05-08T15:53:28.478Z,6.47
2023-05-08T15:55:56.818Z,5.85
2023-05-08T15:58:23.345Z,5.72
2023-05-08T16:00:49.892Z,6.20
2023-05-08T16:03:16.505Z,5.57
2023-05-08T16:05:43.497Z,5.50
2023-05-08T16:08:12.675Z,5.20
2023-05-08T16:10:40.740Z,6.10
2023-05-08T16:13:07.631Z,6.00
2023-05-08T16:15:34.178Z,5.65
2023-05-08T16:18:00.718Z,6.10
2023-05-08T16:20:27.190Z,6.15
2023-05-08T16:23:02.670Z,5.80
2023-05-08T16:25:29.206Z,6.57
2023-05-08T16:27:55.760Z,5.32
2023-05-08T16:30:22.285Z,5.20
2023-05-08T16:32:48.798Z,5.85
2023-05-08T16:35:15.811Z,5.10
2023-05-08T16:37:42.800Z,4.72
2023-05-08T16:40:10.329Z,4.57
2023-05-08T16:42:37.576Z,4.07
2023-05-08T16:45:08.243Z,4.18
2023-05-08T16:47:35.343Z,4.30
2023-05-08T16:50:02.109Z,4.40
2023-05-08T16:52:28.895Z,4.90
2023-05-08T16:54:55.437Z,3.95
2023-05-08T16:57:21.919Z,4.00
2023-05-08T16:59:48.388Z,3.38
2023-05-08T17:02:18.713Z,3.60
2023-05-08T17:04:49.284Z,3.78
2023-05-08T17:07:16.386Z,3.60
2023-05-08T17:09:43.109Z,4.50
2023-05-08T17:12:09.928Z,3.90
2023-05-08T17:14:39.216Z,4.18
2023-05-08T17:17:06.169Z,4.45
2023-05-08T17:19:32.709Z,5.30
2023-05-08T17:21:59.834Z,4.60
2023-05-08T17:24:26.578Z,4.82
2023-05-08T17:26:53.082Z,4.38
2023-05-08T17:29:19.560Z,4.35
2023-05-08T17:31:46.143Z,4.20
2023-05-08T17:34:12.764Z,4.90
2023-05-08T17:36:39.268Z,4.70
2023-05-08T17:39:05.771Z,4.93
2023-05-08T17:41:32.264Z,4.97
2023-05-08T17:43:58.805Z,5.00
2023-05-08T17:46:25.322Z,5.07
2023-05-08T17:48:51.779Z,6.13
2023-05-08T17:51:18.316Z,5.40
2023-05-08T17:53:44.831Z,5.40
2023-05-08T17:56:11.725Z,5.30
2023-05-08T17:58:38.176Z,6.55
2023-05-08T18:01:06.181Z,5.45
2023-05-08T18:03:32.718Z,5.97
2023-05-08T18:05:59.311Z,6.13
2023-05-08T18:08:25.849Z,6.00
2023-05-08T18:10:52.344Z,5.47
2023-05-08T18:13:18.815Z,5.60
2023-05-08T18:15:45.447Z,5.43
2023-05-08T18:18:11.943Z,5.43
2023-05-08T18:20:38.443Z,5.85
2023-05-08T18:23:04.908Z,5.60
2023-05-08T18:25:31.403Z,6.07
2023-05-08T18:27:58.878Z,6.45
2023-05-08T18:30:25.454Z,6.10
2023-05-08T18:32:53.219Z,6.30
2023-05-08T18:35:21.554Z,6.50
2023-05-08T18:37:48.151Z,6.15
2023-05-08T18:40:14.869Z,6.57
2023-05-08T18:42:41.586Z,7.05
2023-05-08T18:45:08.841Z,6.78
2023-05-08T18:47:35.304Z,6.80
2023-05-08T18:50:01.805Z,8.00
2023-05-08T18:52:28.312Z,6.80
2023-05-08T18:54:54.780Z,7.30
2023-05-08T18:57:21.211Z,6.90
2023-05-08T18:59:47.671Z,6.78
2023-05-08T19:02:14.524Z,6.57
2023-05-08T19:04:41.040Z,7.03
2023-05-08T19:07:07.523Z,7.03
2023-05-08T19:09:34.138Z,7.47
2023-05-08T19:12:00.693Z,8.05
2023-05-08T19:14:27.276Z,8.30
2023-05-08T19:16:55.615Z,8.55
2023-05-08T19:19:23.503Z,7.97
2023-05-08T19:21:49.964Z,8.52
2023-05-08T19:24:20.364Z,8.07
2023-05-08T19:26:47.342Z,7.88
2023-05-08T19:29:13.872Z,7.88
2023-05-08T19:31:40.465Z,7.80
2023-05-08T19:34:07.323Z,7.88
2023-05-08T19:36:36.070Z,8.38
2023-05-08T19:39:04.109Z,8.73
2023-05-08T19:41:30.559Z,8.65
2023-05-08T19:43:57.013Z,7.95
2023-05-08T19:46:23.616Z,8.43
2023-05-08T19:48:50.169Z,8.55
2023-05-08T19:51:16.794Z,6.57
2023-05-08T19:53:43.378Z,5.78
2023-05-08T19:56:09.849Z,6.78
2023-05-08T19:58:36.303Z,5.28
2023-05-08T20:01:02.844Z,6.63
2023-05-08T20:03:29.514Z,6.20
2023-05-08T20:05:56.558Z,6.53
2023-05-08T20:08:23.064Z,6.00
2023-05-08T20:10:49.602Z,6.00
2023-05-08T20:13:17.220Z,6.18
2023-05-08T20:15:43.934Z,6.38
2023-05-08T20:18:10.499Z,6.32
2023-05-08T20:20:37.090Z,6.50
2023-05-08T20:23:04.384Z,6.90
2023-05-08T20:25:30.976Z,6.57
2023-05-08T20:27:57.462Z,6.32
2023-05-08T20:30:24.150Z,6.20
2023-05-08T20:32:50.742Z,7.10
2023-05-08T20:35:17.273Z,7.53
2023-05-08T20:37:45.217Z,6.57
2023-05-08T20:40:12.518Z,6.03
2023-05-08T20:42:41.097Z,6.70
2023-05-08T20:45:09.159Z,6.32
2023-05-08T20:47:36.048Z,7.10
2023-05-08T20:50:03.113Z,10.38
2023-05-08T20:52:32.106Z,6.47
2023-05-08T20:54:59.010Z,7.40
2023-05-08T20:57:25.749Z,6.80
2023-05-08T20:59:52.220Z,6.80
2023-05-08T21:02:18.732Z,6.80
2023-05-08T21:04:45.245Z,7.28
2023-05-08T21:07:11.838Z,6.47
2023-05-08T21:09:38.293Z,7.07
2023-05-08T21:12:04.993Z,7.50
2023-05-08T21:14:31.505Z,7.70
2023-05-08T21:16:57.981Z,6.82
2023-05-08T21:19:24.611Z,6.68
2023-05-08T21:21:51.198Z,8.48
2023-05-08T21:24:17.773Z,7.57
2023-05-08T21:26:44.216Z,7.60
2023-05-08T21:29:11.275Z,7.60
2023-05-08T21:31:37.794Z,8.10
2023-05-08T21:34:04.503Z,7.75
2023-05-08T21:36:32.184Z,8.18
2023-05-08T21:38:58.708Z,8.02
2023-05-08T21:41:25.223Z,8.68
2023-05-08T21:43:51.779Z,7.28
2023-05-08T21:46:18.331Z,8.02
2023-05-08T21:48:44.793Z,8.13
2023-05-08T21:51:11.504Z,7.93
2023-05-08T21:53:38.054Z,7.68
2023-05-08T21:56:04.899Z,7.97
2023-05-08T21:58:31.366Z,7.95
2023-05-08T22:00:58.859Z,7.65
2023-05-08T22:03:25.754Z,7.97
2023-05-08T22:05:52.358Z,8.40
2023-05-08T22:08:18.836Z,7.30
2023-05-08T22:10:46.179Z,8.10
2023-05-08T22:13:13.142Z,8.80
2023-05-08T22:15:39.719Z,8.73
2023-05-08T22:18:06.218Z,8.57
2023-05-08T22:20:33.220Z,8.57
2023-05-08T22:22:59.727Z,8.35
2023-05-08T22:25:26.768Z,8.48
2023-05-08T22:27:53.393Z,8.32
2023-05-08T22:30:20.141Z,8.98
2023-05-08T22:32:53.365Z,8.88
2023-05-08T22:35:22.388Z,8.15
2023-05-08T22:37:48.858Z,8.50
2023-05-08T22:40:15.387Z,8.50
2023-05-08T22:42:42.452Z,8.38
2023-05-08T22:45:09.950Z,8.70
2023-05-08T22:47:36.489Z,8.35
2023-05-08T22:50:08.261Z,7.78
2023-05-08T22:52:36.082Z,8.05
2023-05-08T22:55:03.097Z,7.22
2023-05-08T22:57:29.606Z,8.15
2023-05-08T22:59:56.088Z,7.95
2023-05-08T23:02:22.635Z,8.13
2023-05-08T23:04:49.316Z,8.70
2023-05-08T23:07:16.088Z,8.00
2023-05-08T23:09:42.539Z,7.30
2023-05-08T23:12:09.085Z,7.97
2023-05-08T23:14:35.609Z,8.32
2023-05-08T23:17:02.180Z,8.77
2023-05-08T23:19:28.689Z,8.45
2023-05-08T23:21:55.129Z,8.80
2023-05-08T23:24:21.564Z,8.80
2023-05-08T23:26:49.678Z,8.23
2023-05-08T23:29:16.154Z,8.43
2023-05-08T23:31:42.623Z,8.10
2023-05-08T23:34:09.193Z,8.15
2023-05-08T23:36:35.873Z,8.25
2023-05-08T23:39:02.390Z,8.75
2023-05-08T23:41:28.906Z,8.85
2023-05-08T23:43:55.969Z,9.13
2023-05-08T23:46:22.440Z,8.68
2023-05-08T23:48:49.009Z,7.85
2023-05-08T23:51:15.459Z,9.68
2023-05-08T23:53:42.287Z,9.20
2023-05-08T23:56:08.948Z,8.82
2023-05-08T23:58:35.566Z,9.18
